Hovedside
METAR-TAF:

METAR-TAF

Lufthavner :

Heidrunfeltet

Heidrun, Norge

breddegrad: 65-19-30N, lengdegrad: 007-19-36E, høyde over havet: 0 m

Gjeldene værobservasjon

Denne rapporten ble laget for 45 minutter siden, klokken 12:20 UTC
Vind 22 kt fra Sør
Temperatur 13°C
Luftfuktighet 88%
Trykk 1004 hPa
Sikt: 5000 m
Brutte skyer i en høyde av 500 ft
lett regn

METAR: ENHE 151220Z 17022KT 5000 -RA BKN005 13/11 Q1004 W///S3

Tid: 15:05 (13:05 UTC)

Varsel

Denne rapporten ble laget for 2 timer og 5 minutter siden, klokken 11:00 UTC
Varsel gyldig fra 15. klokken 12 UTC til 15. klokken 21 UTC
Vind 15 kt fra Sør-sørøst
Sikt: 9000 m
Få skyer i en høyde av 800 ft
Brutte skyer i en høyde av 2000 ft
Midlertidig
fra 15. klokken 12 UTC til 15. klokken 18 UTC
Sikt: 4000 m
Brutte skyer i en høyde av 800 ft
duskregn, regn, dis
Blir
fra 15. klokken 12 UTC til 15. klokken 14 UTC
Vind 25 kt fra Sør

TAF: ENHE 151100Z 1512/1521 15015KT 9000 FEW008 BKN020 TEMPO 1512/1518 4000 DZRA BR BKN008 BECMG 1512/1514 19025KT

Værobservasjoner og værvarsel for over 4000 flyplasser (METAR- og TAF-rapporter).

Tilgjengelige stasjoner er representert av de røde og gule prikkene på kartet.

Hold musepekeren over prikken for å se navnet på stasjonen.

Klikk så for å se værobservasjoner og -varsler.

For å forandre kartet kan du klikke på den grønne knappen med svart kryss for å zoome inn, på den grønne knappen med strek for å zoome ut, eller på de grønne pilene for å se tilstøtende kart.


METAR-TAF: